Time;durP1;ratioP1;P1;durP2;ratioP2;P2;SDS_P1;SDS_P2;PMS_P1;PMS_P2;Temp;Humidity;BMP_temperature;BMP_pressure;BME280_temperature;BME280_humidity;BME280_pressure;Samples;Min_cycle;Max_cycle;Signal;HPM_P1;HPM_P2
2022/12/29 00:00:11;;;;;;;2.15;1.17;;;10.30;99.90;;;;;;5092282;28;20132;-78
2022/12/29 00:02:37;;;;;;;4.45;1.60;;;10.40;99.90;;;;;;5093729;28;20073;-78
2022/12/29 00:05:03;;;;;;;5.00;1.50;;;10.50;99.90;;;;;;5092954;28;20028;-78
2022/12/29 00:07:29;;;;;;;1.85;1.42;;;10.40;99.90;;;;;;5092838;28;20032;-77
2022/12/29 00:09:54;;;;;;;1.90;1.20;;;10.40;99.90;;;;;;5094028;28;20032;-78
2022/12/29 00:12:20;;;;;;;1.58;1.10;;;10.70;99.90;;;;;;5093484;28;20478;-77
2022/12/29 00:17:30;;;;;;;2.40;1.30;;;10.50;99.90;;;;;;5093682;28;20031;-76
2022/12/29 00:36:42;;;;;;;2.88;1.20;;;10.70;99.90;;;;;;5092902;28;20063;-78
2022/12/29 00:44:46;;;;;;;2.03;1.17;;;10.70;99.90;;;;;;5094088;28;20043;-78
2022/12/29 00:47:12;;;;;;;2.55;0.90;;;10.80;99.90;;;;;;5092198;28;20032;-79
2022/12/29 00:49:37;;;;;;;3.15;1.15;;;10.80;99.90;;;;;;5092217;28;20042;-77
2022/12/29 00:52:06;;;;;;;1.25;1.13;;;10.80;99.90;;;;;;5092873;28;20089;-77
2022/12/29 00:54:34;;;;;;;1.83;1.10;;;10.90;99.90;;;;;;5091692;28;20440;-78
2022/12/29 00:57:00;;;;;;;2.47;0.90;;;10.80;99.90;;;;;;5092884;28;20020;-78
2022/12/29 00:59:26;;;;;;;2.42;1.13;;;10.80;99.90;;;;;;5092204;28;20547;-78
2022/12/29 01:01:53;;;;;;;1.48;0.90;;;11.00;99.90;;;;;;5092610;28;20032;-76
2022/12/29 01:04:24;;;;;;;3.60;1.10;;;11.00;99.90;;;;;;5092692;28;20078;-78
2022/12/29 01:06:49;;;;;;;5.25;1.20;;;11.00;99.90;;;;;;5092745;28;20376;-77
2022/12/29 01:12:01;;;;;;;2.08;1.02;;;10.90;99.90;;;;;;5092740;28;20105;-77
2022/12/29 01:14:27;;;;;;;1.55;0.93;;;10.90;99.90;;;;;;5091837;28;20485;-76
2022/12/29 01:16:54;;;;;;;3.75;0.95;;;10.90;99.90;;;;;;5092229;28;20039;-75
2022/12/29 01:19:21;;;;;;;1.00;0.68;;;10.90;99.90;;;;;;5092494;28;20339;-76
2022/12/29 01:21:47;;;;;;;1.10;0.93;;;10.90;99.90;;;;;;5092559;28;20047;-76
2022/12/29 01:24:14;;;;;;;1.98;1.13;;;10.90;99.90;;;;;;5092718;28;20035;-77
2022/12/29 01:26:39;;;;;;;3.13;1.08;;;10.90;99.90;;;;;;5092686;28;20017;-76
2022/12/29 01:29:05;;;;;;;1.30;0.88;;;11.00;99.90;;;;;;5093112;28;20127;-75
2022/12/29 01:31:31;;;;;;;3.63;1.00;;;11.00;99.90;;;;;;5092583;28;20058;-76
2022/12/29 01:33:57;;;;;;;2.40;1.15;;;11.00;99.90;;;;;;5091553;28;20457;-78
2022/12/29 01:36:23;;;;;;;1.92;0.98;;;10.90;99.90;;;;;;5092180;28;20035;-76
2022/12/29 01:38:49;;;;;;;4.75;1.10;;;10.90;99.90;;;;;;5092522;28;20042;-77
2022/12/29 01:41:16;;;;;;;2.10;0.82;;;10.90;99.90;;;;;;5091937;28;20450;-76
2022/12/29 01:43:46;;;;;;;1.13;0.82;;;11.00;99.90;;;;;;5090621;28;20082;-77
2022/12/29 01:46:41;;;;;;;1.42;0.80;;;10.90;99.90;;;;;;5090719;28;20028;-76
2022/12/29 01:49:21;;;;;;;2.45;0.93;;;10.90;99.90;;;;;;5090806;28;20027;-78
2022/12/29 01:52:03;;;;;;;2.35;0.90;;;10.90;99.90;;;;;;5089871;28;20036;-78
2022/12/29 01:54:42;;;;;;;2.42;0.85;;;10.90;99.90;;;;;;5091585;28;20031;-78
2022/12/29 01:57:16;;;;;;;1.33;0.73;;;10.90;99.90;;;;;;5091293;28;20085;-77
2022/12/29 01:59:50;;;;;;;1.85;0.70;;;11.00;99.90;;;;;;5091955;28;20027;-78
2022/12/29 02:02:16;;;;;;;4.55;1.00;;;10.90;99.90;;;;;;5090660;28;20036;-78
2022/12/29 02:04:46;;;;;;;1.70;0.80;;;11.00;99.90;;;;;;5091356;28;20089;-77
2022/12/29 02:07:19;;;;;;;1.10;0.80;;;11.00;99.90;;;;;;5091395;28;20044;-79
2022/12/29 02:09:50;;;;;;;0.70;0.70;;;11.00;99.90;;;;;;5090211;28;20047;-77
2022/12/29 02:12:18;;;;;;;3.92;0.73;;;11.00;99.90;;;;;;5091085;28;20050;-77
2022/12/29 02:14:44;;;;;;;;;;;11.00;99.90;;;;;;5092018;28;20471;-76
2022/12/29 02:17:21;;;;;;;2.78;0.77;;;11.00;99.90;;;;;;5091054;28;19991;-76
2022/12/29 02:20:01;;;;;;;1.00;0.70;;;11.00;99.90;;;;;;5091155;28;20055;-78
2022/12/29 02:23:05;;;;;;;1.73;0.80;;;10.90;99.90;;;;;;5091168;28;20111;-78
2022/12/29 02:26:05;;;;;;;1.55;0.90;;;10.90;99.90;;;;;;5090051;28;20028;-77
2022/12/29 02:28:49;;;;;;;1.77;0.90;;;10.90;99.90;;;;;;5091073;28;20081;-78
2022/12/29 02:31:40;;;;;;;3.25;0.95;;;10.90;99.90;;;;;;5090714;28;20334;-76
2022/12/29 02:34:14;;;;;;;2.92;0.82;;;10.90;99.90;;;;;;5089735;28;20032;-77
2022/12/29 02:37:00;;;;;;;0.88;0.73;;;11.00;99.90;;;;;;5105289;28;20024;-77
2022/12/29 02:39:45;;;;;;;3.53;1.23;;;10.90;99.90;;;;;;5111611;28;20030;-78
2022/12/29 02:42:23;;;;;;;0.88;0.85;;;10.90;99.90;;;;;;5111238;28;20016;-78
2022/12/29 02:45:02;;;;;;;2.05;0.98;;;11.00;99.90;;;;;;5111593;28;20434;-78
2022/12/29 02:47:46;;;;;;;1.98;0.68;;;11.00;99.90;;;;;;5111057;28;20036;-78
2022/12/29 02:50:23;;;;;;;2.08;1.02;;;11.00;99.90;;;;;;5109958;28;20036;-77
2022/12/29 02:52:59;;;;;;;1.52;0.88;;;11.10;99.90;;;;;;5111093;28;20446;-77
2022/12/29 02:55:25;;;;;;;1.33;0.70;;;11.00;99.90;;;;;;5110907;28;20115;-77
2022/12/29 02:58:15;;;;;;;1.00;0.88;;;11.00;99.90;;;;;;5110604;28;20043;-77
2022/12/29 03:00:53;;;;;;;0.43;0.43;;;11.10;99.90;;;;;;5111011;28;20507;-78
2022/12/29 03:03:18;;;;;;;1.05;0.40;;;11.10;99.90;;;;;;5110783;28;20130;-77
2022/12/29 03:05:50;;;;;;;1.98;1.02;;;11.20;99.90;;;;;;5111465;28;20113;-78
2022/12/29 03:08:39;;;;;;;1.60;0.70;;;11.20;99.90;;;;;;5111030;28;20055;-77
2022/12/29 03:12:07;;;;;;;1.95;0.60;;;11.20;99.90;;;;;;5110743;28;20023;-78
2022/12/29 03:17:29;;;;;;;0.75;0.75;;;11.20;99.90;;;;;;5110849;28;20035;-75
2022/12/29 03:20:03;;;;;;;3.50;1.15;;;11.30;99.90;;;;;;5110520;28;20028;-77
2022/12/29 03:22:34;;;;;;;2.85;0.57;;;11.30;99.90;;;;;;5110707;28;20028;-76
2022/12/29 03:25:05;;;;;;;0.75;0.60;;;11.40;99.90;;;;;;5110658;28;20024;-77
2022/12/29 03:27:55;;;;;;;1.70;0.70;;;11.30;99.90;;;;;;5109496;28;20335;-77
2022/12/29 03:30:21;;;;;;;1.50;0.75;;;11.40;99.90;;;;;;5110729;28;20027;-77
2022/12/29 03:32:49;;;;;;;2.05;0.80;;;11.40;99.90;;;;;;5109925;28;20110;-77
2022/12/29 03:35:19;;;;;;;2.17;0.80;;;11.40;99.90;;;;;;5111009;28;20361;-77
2022/12/29 03:37:56;;;;;;;4.07;0.90;;;11.40;99.90;;;;;;5110774;28;20377;-77
2022/12/29 03:40:24;;;;;;;1.15;0.68;;;11.40;99.90;;;;;;5109578;28;20103;-78
2022/12/29 03:42:50;;;;;;;2.22;0.90;;;11.40;99.90;;;;;;5110486;28;20047;-77
2022/12/29 03:45:16;;;;;;;2.03;0.80;;;11.40;99.90;;;;;;5110236;28;20028;-77
2022/12/29 03:47:42;;;;;;;0.60;0.57;;;11.40;99.90;;;;;;5110858;28;20099;-78
2022/12/29 03:50:08;;;;;;;0.43;0.43;;;11.50;99.90;;;;;;5110636;28;20088;-79
2022/12/29 03:52:34;;;;;;;2.70;0.73;;;11.50;99.90;;;;;;5110355;28;20039;-77
2022/12/29 03:55:00;;;;;;;1.00;0.65;;;11.50;99.90;;;;;;5109529;28;20027;-77
2022/12/29 03:57:25;;;;;;;1.35;0.52;;;11.50;99.90;;;;;;5110246;28;20043;-77
2022/12/29 03:59:51;;;;;;;1.20;0.90;;;11.50;99.90;;;;;;5110671;28;20038;-77
2022/12/29 04:02:17;;;;;;;0.45;0.45;;;11.50;99.90;;;;;;5110294;28;20036;-75
2022/12/29 04:04:42;;;;;;;1.23;0.60;;;11.60;99.90;;;;;;5110418;28;20035;-77
2022/12/29 04:07:08;;;;;;;0.70;0.70;;;11.60;99.90;;;;;;5109340;28;20136;-76
2022/12/29 04:09:34;;;;;;;1.80;0.80;;;11.60;99.90;;;;;;5110162;28;20092;-78
2022/12/29 04:11:59;;;;;;;0.60;0.43;;;11.60;99.90;;;;;;5110025;28;20411;-77
2022/12/29 04:14:25;;;;;;;0.90;0.63;;;11.70;99.90;;;;;;5110891;28;20357;-76
2022/12/29 04:16:51;;;;;;;1.90;0.35;;;11.80;99.90;;;;;;5112749;28;20046;-77
2022/12/29 04:19:16;;;;;;;0.35;0.35;;;11.80;99.90;;;;;;5114122;28;20107;-76
2022/12/29 04:21:42;;;;;;;0.77;0.52;;;11.80;99.90;;;;;;5113779;28;20048;-76
2022/12/29 04:24:08;;;;;;;0.80;0.45;;;11.90;99.90;;;;;;5113948;28;20016;-77
2022/12/29 04:26:33;;;;;;;0.25;0.25;;;11.80;99.90;;;;;;5114246;28;20054;-77
2022/12/29 04:28:59;;;;;;;2.63;0.50;;;12.00;99.90;;;;;;5113767;28;20028;-77
2022/12/29 04:31:25;;;;;;;0.88;0.40;;;11.90;99.90;;;;;;5113537;28;20035;-78
2022/12/29 04:33:50;;;;;;;1.27;0.50;;;11.90;99.90;;;;;;5112502;28;20028;-78
2022/12/29 04:36:16;;;;;;;1.00;0.57;;;11.90;99.90;;;;;;5113593;28;20031;-78
2022/12/29 04:38:42;;;;;;;1.55;0.60;;;11.90;99.90;;;;;;5113903;28;20509;-76
2022/12/29 04:41:08;;;;;;;1.27;0.50;;;11.90;99.90;;;;;;5113763;28;20028;-76
2022/12/29 04:43:33;;;;;;;0.63;0.50;;;12.00;99.90;;;;;;5112541;28;20043;-78
2022/12/29 04:45:59;;;;;;;0.75;0.47;;;12.00;99.90;;;;;;5113326;28;20039;-76
2022/12/29 04:48:24;;;;;;;2.20;0.50;;;12.00;99.90;;;;;;5113355;28;20031;-76
2022/12/29 04:50:50;;;;;;;0.75;0.50;;;12.00;99.90;;;;;;5112712;28;20020;-75
2022/12/29 04:53:17;;;;;;;1.17;0.50;;;12.00;99.90;;;;;;5113430;28;20476;-76
2022/12/29 04:55:43;;;;;;;1.48;0.40;;;12.10;99.90;;;;;;5113150;28;20025;-76
2022/12/29 04:58:08;;;;;;;2.05;0.60;;;12.10;99.90;;;;;;5113154;28;20049;-77
2022/12/29 05:00:35;;;;;;;2.40;0.85;;;12.10;99.90;;;;;;5113208;28;20522;-77
2022/12/29 05:03:00;;;;;;;0.80;0.35;;;12.20;99.90;;;;;;5113117;28;20027;-76
2022/12/29 05:05:26;;;;;;;1.60;0.30;;;12.10;99.90;;;;;;5112793;28;20110;-77
2022/12/29 05:07:51;;;;;;;1.27;0.45;;;12.10;99.90;;;;;;5112909;28;20024;-77
2022/12/29 05:10:17;;;;;;;2.97;0.40;;;12.10;99.90;;;;;;5111875;28;20334;-78
2022/12/29 05:12:43;;;;;;;2.65;0.47;;;12.20;99.90;;;;;;5112845;28;20120;-77
2022/12/29 05:15:10;;;;;;;0.88;0.68;;;12.20;99.90;;;;;;5113017;28;20019;-76
2022/12/29 05:17:36;;;;;;;1.50;0.40;;;12.10;99.90;;;;;;5112231;28;20461;-77
2022/12/29 05:20:03;;;;;;;1.45;0.50;;;12.20;99.90;;;;;;5112950;27;20040;-77
2022/12/29 05:22:29;;;;;;;0.93;0.50;;;12.10;99.90;;;;;;5112839;28;20024;-76
2022/12/29 05:24:54;;;;;;;2.72;0.65;;;12.10;99.90;;;;;;5111502;28;20050;-76
2022/12/29 05:27:20;;;;;;;1.70;0.50;;;12.20;99.90;;;;;;5111621;28;20035;-76
2022/12/29 05:29:46;;;;;;;2.05;0.65;;;12.20;99.90;;;;;;5112149;28;20147;-76
2022/12/29 05:32:11;;;;;;;0.60;0.30;;;12.20;99.90;;;;;;5112654;28;20032;-78
2022/12/29 05:34:37;;;;;;;0.68;0.38;;;12.20;99.90;;;;;;5112663;28;20023;-75
2022/12/29 05:37:03;;;;;;;0.95;0.55;;;12.20;99.90;;;;;;5112325;28;20432;-76
2022/12/29 05:39:29;;;;;;;0.70;0.47;;;12.20;99.90;;;;;;5111204;28;20024;-78
2022/12/29 05:41:55;;;;;;;2.28;0.50;;;12.20;99.90;;;;;;5111621;28;20034;-77
2022/12/29 05:44:21;;;;;;;1.85;0.50;;;12.20;99.90;;;;;;5112590;28;20106;-79
2022/12/29 05:46:47;;;;;;;0.60;0.40;;;12.20;99.90;;;;;;5112375;28;20505;-77
2022/12/29 05:49:12;;;;;;;2.10;0.50;;;12.20;99.90;;;;;;5110996;28;20088;-76
2022/12/29 05:51:38;;;;;;;0.90;0.50;;;12.20;99.90;;;;;;5110963;28;20035;-77
2022/12/29 05:54:03;;;;;;;1.08;0.43;;;12.20;99.90;;;;;;5112197;27;20020;-78
2022/12/29 05:56:29;;;;;;;0.77;0.50;;;12.20;99.90;;;;;;5112527;28;20099;-79
2022/12/29 05:58:55;;;;;;;0.60;0.45;;;12.20;99.90;;;;;;5111896;28;20039;-77
2022/12/29 06:01:20;;;;;;;0.93;0.47;;;12.20;99.90;;;;;;5111968;28;20031;-78
2022/12/29 06:03:46;;;;;;;0.70;0.40;;;12.10;99.90;;;;;;5110820;28;20096;-78
2022/12/29 06:06:12;;;;;;;0.77;0.50;;;12.20;99.90;;;;;;5112207;28;20035;-78
2022/12/29 06:08:37;;;;;;;1.90;0.40;;;12.20;99.90;;;;;;5112684;28;20106;-77
2022/12/29 06:11:03;;;;;;;3.95;0.40;;;12.10;99.90;;;;;;5112023;28;20119;-77
2022/12/29 06:13:29;;;;;;;1.08;0.40;;;12.10;99.90;;;;;;5110979;28;20445;-77
2022/12/29 06:15:55;;;;;;;0.65;0.40;;;12.10;99.90;;;;;;5110780;28;20032;-76
2022/12/29 06:18:20;;;;;;;0.63;0.32;;;12.00;99.90;;;;;;5111757;28;20085;-78
2022/12/29 06:20:47;;;;;;;0.90;0.60;;;12.10;99.90;;;;;;5112683;28;20031;-77
2022/12/29 06:23:13;;;;;;;0.82;0.40;;;12.00;99.90;;;;;;5112125;28;20042;-76
2022/12/29 06:25:39;;;;;;;2.63;0.60;;;12.00;99.90;;;;;;5111879;28;20035;-78
2022/12/29 06:28:05;;;;;;;1.80;0.40;;;12.00;99.90;;;;;;5111601;28;20035;-79
2022/12/29 06:30:31;;;;;;;3.92;0.88;;;11.90;99.90;;;;;;5110780;28;20055;-79
2022/12/29 06:32:58;;;;;;;1.48;0.40;;;11.90;99.90;;;;;;5111295;28;20031;-78
2022/12/29 06:35:24;;;;;;;0.55;0.40;;;11.90;99.90;;;;;;5111805;28;20043;-79
2022/12/29 06:37:51;;;;;;;0.82;0.40;;;11.90;99.90;;;;;;5110074;28;20066;-77
2022/12/29 06:40:17;;;;;;;1.27;0.40;;;11.90;99.90;;;;;;5111522;28;20043;-76
2022/12/29 06:42:43;;;;;;;0.43;0.43;;;12.10;99.90;;;;;;5110302;28;20093;-77
2022/12/29 06:45:09;;;;;;;1.95;0.50;;;11.90;99.90;;;;;;5111495;28;20016;-78
2022/12/29 06:47:35;;;;;;;0.73;0.60;;;11.90;99.90;;;;;;5111690;28;20031;-77
2022/12/29 06:50:02;;;;;;;0.50;0.40;;;11.90;99.90;;;;;;5110527;28;20441;-77
2022/12/29 06:52:28;;;;;;;0.20;0.20;;;11.90;99.90;;;;;;5110466;28;20059;-78
2022/12/29 06:54:54;;;;;;;1.83;0.50;;;11.80;99.90;;;;;;5111642;28;20051;-77
2022/12/29 06:57:23;;;;;;;1.77;0.52;;;11.80;99.90;;;;;;5111152;28;20036;-77
2022/12/29 06:59:48;;;;;;;0.40;0.40;;;11.80;99.90;;;;;;5111754;28;20024;-77
2022/12/29 07:02:16;;;;;;;1.02;0.30;;;11.80;99.90;;;;;;5110380;28;20024;-76
2022/12/29 07:04:42;;;;;;;0.47;0.40;;;11.90;99.90;;;;;;5111494;28;20036;-77
2022/12/29 07:07:07;;;;;;;0.40;0.30;;;11.90;99.90;;;;;;5111525;28;20430;-77
2022/12/29 07:09:33;;;;;;;1.38;0.30;;;12.00;99.90;;;;;;5111656;28;20541;-77
2022/12/29 07:11:59;;;;;;;1.45;0.45;;;11.90;99.90;;;;;;5111336;28;20327;-75
2022/12/29 07:14:25;;;;;;;0.68;0.40;;;12.00;99.90;;;;;;5111710;28;20046;-76
2022/12/29 07:16:50;;;;;;;0.82;0.40;;;12.00;99.90;;;;;;5110812;28;20031;-78
2022/12/29 07:19:16;;;;;;;1.40;0.50;;;12.00;99.90;;;;;;5111335;28;20147;-77
2022/12/29 07:21:41;;;;;;;4.25;0.82;;;12.10;99.90;;;;;;5110441;28;20042;-75
2022/12/29 07:24:08;;;;;;;3.13;0.60;;;12.00;99.90;;;;;;5109780;28;20472;-76
2022/12/29 07:26:36;;;;;;;1.40;0.40;;;11.60;99.90;;;;;;5111385;28;20445;-75
2022/12/29 07:29:02;;;;;;;4.17;0.40;;;11.40;99.90;;;;;;5111577;28;20032;-75
2022/12/29 07:31:28;;;;;;;3.90;0.65;;;11.30;99.90;;;;;;5111015;28;20039;-76
2022/12/29 07:33:54;;;;;;;2.90;0.50;;;11.10;99.90;;;;;;5110400;28;20027;-75
2022/12/29 07:36:19;;;;;;;1.45;0.47;;;11.10;99.90;;;;;;5109402;28;20077;-75
2022/12/29 07:38:45;;;;;;;2.47;0.47;;;11.00;99.90;;;;;;5111332;28;20038;-76
2022/12/29 07:41:11;;;;;;;0.85;0.32;;;11.20;99.90;;;;;;5110897;28;20035;-75
2022/12/29 07:43:37;;;;;;;2.53;0.50;;;11.00;99.90;;;;;;5110592;28;20458;-76
2022/12/29 07:46:02;;;;;;;6.28;0.70;;;11.00;99.90;;;;;;5110799;28;20066;-76
2022/12/29 07:48:28;;;;;;;0.20;0.20;;;11.10;99.90;;;;;;5110607;28;20486;-77
2022/12/29 07:50:54;;;;;;;2.80;0.40;;;11.10;99.90;;;;;;5114539;28;20092;-76
2022/12/29 07:53:20;;;;;;;0.82;0.32;;;11.10;99.90;;;;;;5114805;28;20024;-77
2022/12/29 07:55:45;;;;;;;1.80;0.35;;;11.10;99.90;;;;;;5115027;28;20060;-77
2022/12/29 07:58:11;;;;;;;1.02;0.30;;;11.10;99.90;;;;;;5115140;28;20040;-78
2022/12/29 08:00:38;;;;;;;0.22;0.13;;;11.20;99.90;;;;;;5114704;28;20035;-76
2022/12/29 08:03:07;;;;;;;1.30;0.40;;;11.10;99.90;;;;;;5113615;28;20031;-77
2022/12/29 08:05:34;;;;;;;3.15;1.33;;;11.10;99.90;;;;;;5114985;28;20031;-77
2022/12/29 08:07:59;;;;;;;0.77;0.30;;;11.10;99.90;;;;;;5114381;27;20027;-77
2022/12/29 08:10:25;;;;;;;1.98;0.20;;;11.10;99.90;;;;;;5114200;28;20043;-76
2022/12/29 08:12:51;;;;;;;0.63;0.45;;;11.10;99.90;;;;;;5113973;28;20132;-76
2022/12/29 08:15:20;;;;;;;1.10;0.50;;;11.10;99.90;;;;;;5112807;28;20038;-77
2022/12/29 08:17:46;;;;;;;0.55;0.30;;;11.00;99.90;;;;;;5114614;28;20051;-76
2022/12/29 08:20:11;;;;;;;1.80;0.60;;;11.00;99.90;;;;;;5114362;28;20120;-77
2022/12/29 08:22:44;;;;;;;0.60;0.30;;;11.10;99.90;;;;;;5112735;28;20115;-77
2022/12/29 08:25:10;;;;;;;0.60;0.30;;;11.30;99.90;;;;;;5112660;28;20115;-76
2022/12/29 08:27:36;;;;;;;1.05;0.60;;;11.10;99.90;;;;;;5113676;28;20130;-78
2022/12/29 08:30:02;;;;;;;3.42;0.63;;;11.10;99.90;;;;;;5112567;28;20164;-77
2022/12/29 08:32:28;;;;;;;2.85;1.23;;;11.10;99.90;;;;;;5113937;28;20020;-77
2022/12/29 08:34:54;;;;;;;1.48;0.60;;;11.20;99.90;;;;;;5112823;28;20481;-78
2022/12/29 08:37:21;;;;;;;5.15;0.80;;;11.10;99.90;;;;;;5113712;28;20046;-77
2022/12/29 08:39:47;;;;;;;4.50;0.70;;;11.20;99.90;;;;;;5112390;28;20084;-77
2022/12/29 08:42:13;;;;;;;0.60;0.40;;;11.10;99.90;;;;;;5113847;28;20023;-76
2022/12/29 08:44:39;;;;;;;3.08;0.68;;;11.10;99.90;;;;;;5114056;28;20034;-77
2022/12/29 08:47:05;;;;;;;5.40;0.70;;;11.10;99.90;;;;;;5113688;28;20501;-77
2022/12/29 08:49:30;;;;;;;3.28;0.70;;;11.20;99.90;;;;;;5113834;27;20506;-78
2022/12/29 08:52:01;;;;;;;7.80;1.63;;;11.20;99.90;;;;;;5113386;27;20450;-76
2022/12/29 08:54:27;;;;;;;5.57;0.70;;;11.20;99.90;;;;;;5113532;28;20031;-78
2022/12/29 08:56:53;;;;;;;6.90;1.13;;;11.30;99.90;;;;;;5112470;28;20038;-78
2022/12/29 08:59:19;;;;;;;3.63;0.65;;;11.30;99.90;;;;;;5113581;28;20400;-77
2022/12/29 09:01:45;;;;;;;5.57;0.82;;;11.30;99.90;;;;;;5113253;28;20526;-78
2022/12/29 09:04:10;;;;;;;5.63;1.20;;;11.30;99.90;;;;;;5113626;28;20080;-77
2022/12/29 09:06:36;;;;;;;5.55;0.90;;;11.30;99.90;;;;;;5113038;28;20541;-77
2022/12/29 09:09:02;;;;;;;3.83;0.80;;;11.30;99.90;;;;;;5113003;28;20034;-78
2022/12/29 09:11:28;;;;;;;5.05;0.88;;;11.30;99.90;;;;;;5112859;28;20024;-78
2022/12/29 09:13:54;;;;;;;7.45;0.77;;;11.30;99.90;;;;;;5112886;28;20064;-77
2022/12/29 09:16:22;;;;;;;4.75;0.93;;;11.30;99.90;;;;;;5111675;28;20047;-77
2022/12/29 09:18:47;;;;;;;5.30;1.00;;;11.40;99.90;;;;;;5111462;28;20042;-76
2022/12/29 09:21:13;;;;;;;4.63;0.80;;;11.40;99.90;;;;;;5112474;28;20123;-77
2022/12/29 09:23:40;;;;;;;5.00;1.20;;;11.40;99.90;;;;;;5116047;28;20038;-75
2022/12/29 09:26:07;;;;;;;7.20;1.63;;;11.40;99.90;;;;;;5117078;27;20113;-77
2022/12/29 09:28:33;;;;;;;4.57;0.73;;;11.50;99.90;;;;;;5118485;28;20036;-78
2022/12/29 09:30:58;;;;;;;2.72;0.60;;;11.60;99.90;;;;;;5112485;28;20035;-76
2022/12/29 09:33:24;;;;;;;3.38;0.95;;;11.50;99.90;;;;;;5113044;28;20032;-78
2022/12/29 09:35:57;;;;;;;4.38;1.20;;;11.50;99.90;;;;;;5112870;28;20116;-78
2022/12/29 09:38:24;;;;;;;1.52;0.80;;;11.50;99.90;;;;;;5112621;28;20058;-78
2022/12/29 09:40:56;;;;;;;2.92;0.85;;;11.60;99.90;;;;;;5112793;28;20085;-78
2022/12/29 09:44:13;;;;;;;3.28;0.98;;;11.60;99.90;;;;;;5112310;28;20028;-77
2022/12/29 09:46:43;;;;;;;2.85;0.93;;;11.70;99.90;;;;;;5088430;28;20046;-77
2022/12/29 09:49:39;;;;;;;8.10;1.33;;;11.70;99.90;;;;;;5112160;28;20028;-78
2022/12/29 09:52:12;;;;;;;3.70;1.15;;;11.80;99.90;;;;;;5112205;27;20092;-77
2022/12/29 09:54:54;;;;;;;1.05;0.85;;;11.80;99.90;;;;;;5112028;28;20377;-79
2022/12/29 09:57:30;;;;;;;4.95;1.10;;;11.70;99.90;;;;;;5111679;28;20108;-78
2022/12/29 10:00:04;;;;;;;1.90;0.90;;;11.70;99.90;;;;;;5112334;28;20045;-77
2022/12/29 10:02:44;;;;;;;1.95;1.02;;;11.70;99.90;;;;;;5111946;28;20165;-76
2022/12/29 10:05:40;;;;;;;2.60;1.05;;;11.70;99.90;;;;;;5111607;28;20102;-77
2022/12/29 10:08:14;;;;;;;2.17;0.80;;;11.70;99.90;;;;;;5112074;28;20252;-78
2022/12/29 10:10:46;;;;;;;4.28;1.05;;;11.80;99.90;;;;;;5110695;28;20042;-78
2022/12/29 10:13:26;;;;;;;0.75;0.70;;;11.80;99.90;;;;;;5111176;28;20048;-78
2022/12/29 10:16:12;;;;;;;2.08;0.88;;;11.70;99.90;;;;;;5111925;28;20043;-78
2022/12/29 10:18:38;;;;;;;2.80;1.00;;;11.70;99.90;;;;;;5111527;28;20047;-78
2022/12/29 10:21:14;;;;;;;3.70;0.98;;;11.80;99.90;;;;;;5111350;28;20020;-77
2022/12/29 10:23:47;;;;;;;4.18;0.93;;;11.70;99.90;;;;;;5111866;28;20020;-78
2022/12/29 10:26:37;;;;;;;2.53;0.90;;;11.80;99.90;;;;;;5111581;28;20645;-78
2022/12/29 10:29:05;;;;;;;3.05;1.10;;;11.70;99.90;;;;;;5111310;27;20065;-78
2022/12/29 10:31:37;;;;;;;;;;;11.80;99.90;;;;;;5110705;28;20027;-77
2022/12/29 10:34:12;;;;;;;1.60;0.88;;;11.80;99.90;;;;;;5111899;28;19923;-78
2022/12/29 10:36:43;;;;;;;4.38;1.08;;;11.80;99.90;;;;;;5109899;28;20031;-79
2022/12/29 10:39:26;;;;;;;5.07;1.10;;;11.80;99.90;;;;;;5111091;28;20086;-79
2022/12/29 10:42:10;;;;;;;2.05;0.95;;;11.80;99.90;;;;;;5111804;28;20071;-78
2022/12/29 10:44:37;;;;;;;4.25;1.10;;;11.80;99.90;;;;;;5109988;28;20369;-79
2022/12/29 10:47:07;;;;;;;2.58;1.15;;;11.90;99.90;;;;;;5111345;28;20027;-78
2022/12/29 10:49:40;;;;;;;7.82;1.08;;;11.90;99.90;;;;;;5109841;28;20103;-77
2022/12/29 10:52:07;;;;;;;3.88;1.15;;;11.90;99.90;;;;;;5111193;28;20028;-78
2022/12/29 10:54:40;;;;;;;1.70;0.70;;;12.00;99.90;;;;;;5109754;28;20469;-78
2022/12/29 10:57:13;;;;;;;6.45;1.60;;;12.00;99.90;;;;;;5110773;28;20376;-77
2022/12/29 10:59:39;;;;;;;5.25;1.08;;;12.00;99.90;;;;;;5111604;28;20019;-78
2022/12/29 11:02:11;;;;;;;4.55;1.60;;;12.10;99.90;;;;;;5111569;28;20028;-78
2022/12/29 11:05:07;;;;;;;8.45;0.90;;;12.00;99.90;;;;;;5110896;28;20428;-79
2022/12/29 11:07:33;;;;;;;11.25;1.25;;;12.00;99.90;;;;;;5111013;28;20046;-79
2022/12/29 11:10:19;;;;;;;4.05;0.77;;;12.00;99.90;;;;;;5111023;28;20032;-78
2022/12/29 11:13:03;;;;;;;4.47;0.98;;;12.00;99.90;;;;;;5109611;28;20473;-78
2022/12/29 11:15:45;;;;;;;3.95;1.00;;;12.00;99.90;;;;;;5109616;28;20110;-77
2022/12/29 11:18:26;;;;;;;3.28;1.00;;;12.00;99.90;;;;;;5110638;28;20502;-76
2022/12/29 11:21:01;;;;;;;4.22;0.90;;;12.00;99.90;;;;;;5111386;28;20034;-76
2022/12/29 11:23:35;;;;;;;5.90;0.90;;;12.10;99.90;;;;;;5109931;28;20065;-77
2022/12/29 11:26:14;;;;;;;3.45;1.17;;;12.10;99.80;;;;;;5114153;28;20023;-77
2022/12/29 11:28:43;;;;;;;5.18;1.10;;;12.20;99.90;;;;;;5114463;28;20024;-78
2022/12/29 11:31:10;;;;;;;9.77;1.15;;;12.20;99.90;;;;;;5118315;28;20097;-77
2022/12/29 11:33:37;;;;;;;4.30;1.73;;;12.40;99.70;;;;;;5117438;28;20039;-78
2022/12/29 11:36:07;;;;;;;5.43;1.10;;;12.30;99.80;;;;;;5116488;28;20020;-79
2022/12/29 11:38:43;;;;;;;6.63;1.02;;;12.50;99.90;;;;;;5118009;28;20031;-79
2022/12/29 11:41:13;;;;;;;4.78;0.98;;;12.70;99.60;;;;;;5115802;28;20447;-78
2022/12/29 11:43:43;;;;;;;5.05;1.00;;;12.90;99.50;;;;;;5115332;28;20034;-76
2022/12/29 11:46:23;;;;;;;6.57;1.50;;;13.20;98.90;;;;;;5113991;28;20039;-76
2022/12/29 11:48:49;;;;;;;5.85;2.13;;;13.50;98.70;;;;;;5113565;28;20092;-77
2022/12/29 11:51:25;;;;;;;10.10;1.73;;;13.80;98.30;;;;;;5114505;27;20441;-77
2022/12/29 11:53:57;;;;;;;8.50;1.27;;;14.00;98.50;;;;;;5113974;28;20327;-77
2022/12/29 11:56:39;;;;;;;6.35;1.00;;;14.00;97.60;;;;;;5114406;28;20110;-76
2022/12/29 11:59:39;;;;;;;4.07;1.00;;;14.20;97.50;;;;;;5114530;28;20040;-76
2022/12/29 12:02:29;;;;;;;12.32;1.48;;;14.40;97.00;;;;;;5114222;28;20028;-77
2022/12/29 12:05:19;;;;;;;3.70;0.98;;;14.10;96.80;;;;;;5113007;28;20035;-76
2022/12/29 12:08:21;;;;;;;2.03;0.90;;;14.10;96.40;;;;;;5114242;28;20464;-75
2022/12/29 12:10:56;;;;;;;4.90;1.42;;;14.00;96.50;;;;;;5114176;28;20541;-77
2022/12/29 12:13:37;;;;;;;6.00;1.15;;;13.80;96.60;;;;;;5113114;28;20365;-77
2022/12/29 12:16:08;;;;;;;4.70;1.00;;;13.80;96.40;;;;;;5114149;28;20032;-76
2022/12/29 12:18:45;;;;;;;4.22;1.25;;;13.80;96.30;;;;;;5114236;27;20155;-76
2022/12/29 12:21:21;;;;;;;6.68;2.10;;;13.60;96.20;;;;;;5113582;28;20509;-76
2022/12/29 12:24:05;;;;;;;5.32;1.20;;;13.50;95.70;;;;;;5114261;28;20105;-76
2022/12/29 12:26:54;;;;;;;4.90;1.10;;;13.40;96.10;;;;;;5113777;28;20432;-76
2022/12/29 12:29:59;;;;;;;3.53;1.05;;;13.30;96.10;;;;;;5113446;28;20521;-77
2022/12/29 12:32:42;;;;;;;4.50;1.60;;;13.20;96.00;;;;;;5112728;28;20177;-77
2022/12/29 12:35:21;;;;;;;5.38;1.02;;;13.20;96.50;;;;;;5113130;28;20036;-75
2022/12/29 12:37:59;;;;;;;7.20;2.05;;;13.10;96.30;;;;;;5113158;27;20043;-78
2022/12/29 12:40:38;;;;;;;3.28;0.90;;;13.00;96.30;;;;;;5113637;28;20479;-77
2022/12/29 12:43:42;;;;;;;5.45;1.25;;;13.00;96.60;;;;;;5112408;28;20092;-77
2022/12/29 12:46:26;;;;;;;6.00;2.03;;;12.90;96.60;;;;;;5097034;28;20019;-77
2022/12/29 12:49:26;;;;;;;5.13;1.25;;;12.90;96.80;;;;;;5113594;28;20063;-78
2022/12/29 12:52:26;;;;;;;5.95;0.88;;;12.80;96.80;;;;;;5118942;28;20027;-79
2022/12/29 12:55:08;;;;;;;7.18;1.05;;;12.70;96.80;;;;;;5112584;28;20042;-77
2022/12/29 12:57:46;;;;;;;4.72;1.00;;;12.70;97.00;;;;;;5111936;28;20522;-79
2022/12/29 13:00:20;;;;;;;6.38;1.30;;;12.70;96.90;;;;;;5112934;28;20023;-76
2022/12/29 13:03:34;;;;;;;4.72;1.50;;;12.70;97.00;;;;;;5114087;28;20016;-76
2022/12/29 13:06:19;;;;;;;3.03;0.85;;;12.60;96.90;;;;;;5113033;28;20370;-77
2022/12/29 13:09:14;;;;;;;2.97;0.90;;;12.60;96.80;;;;;;5113638;28;20545;-79
2022/12/29 13:12:17;;;;;;;4.07;1.00;;;12.60;96.90;;;;;;5111586;28;20043;-76
2022/12/29 13:15:14;;;;;;;7.25;1.33;;;12.60;96.80;;;;;;5113019;28;20078;-78
2022/12/29 13:17:55;;;;;;;;;;;12.60;96.90;;;;;;5113248;28;20055;-77
2022/12/29 13:20:28;;;;;;;3.65;1.10;;;12.60;96.70;;;;;;5112696;28;19951;-77
2022/12/29 13:23:12;;;;;;;4.90;1.25;;;12.60;96.60;;;;;;5112531;28;20032;-76
2022/12/29 13:26:01;;;;;;;6.13;1.08;;;12.60;96.40;;;;;;5112878;28;20114;-79
2022/12/29 13:29:05;;;;;;;5.47;1.38;;;12.60;96.30;;;;;;5111260;28;20059;-79
2022/12/29 13:31:45;;;;;;;6.13;1.05;;;12.60;96.10;;;;;;5112389;27;20024;-77
2022/12/29 13:34:32;;;;;;;25.83;11.90;;;12.50;96.20;;;;;;5111348;28;20024;-77
2022/12/29 13:37:20;;;;;;;13.57;6.70;;;12.60;96.40;;;;;;5112374;28;20035;-79
2022/12/29 13:39:51;;;;;;;7.47;1.48;;;12.50;96.10;;;;;;5112279;28;20040;-78
2022/12/29 13:42:19;;;;;;;7.65;1.20;;;12.50;96.10;;;;;;5112124;28;20372;-78